Midway City, CA (92655)

3:23 AM PST on December 28, 2014 (GMT -0800)
Goldenwest/Heil | Change Station
CLOSE
Current Station
Personal Weather Station
Location: Huntington Beach, CA
Elevation: 20 ft
Nearby Weather Stations

Elev 20 ft 33.72 °N, 118.01 °W | Updated 9 seconds ago

Clear
Clear
40.6 °F
Feels Like 41 °F
N
0.0
Wind Variable Wind from NW
Gusts 0.0 mph

Today
High -- | Low -- °F
--% Chance of Precip.
Yesterday
High -- | Low -- °F
Precip. -- in
6:55 AM 4:51 PM
Waxing Crescent, 47% visible
Pressure 30.29 in
Visibility 10.0 miles
Clouds Clear
Windchill 41 °F
Dew Point 32 °F
Humidity 71%
Rainfall 0.00 in
Snow Depth Not available.
UV 0.0 out of 12
Pollen 7.30 out of 12
Air Quality Not available.
Flu Activity Not available.
METAR KSLI 281058Z AUTO 34003KT 10SM CLR 06/M02 A3028 RMK AO2 SLP257 T00611018

More Conditions Fewer Conditions

Pressure 30.29 in
Visibility 10.0 miles
Clouds Clear
Windchill 41 °F
Dew Point 32 °F
Humidity 71%
Rainfall 0.00 in
Snow Depth Not available.
UV 0.0 out of 12
Pollen 7.30 out of 12
Air Quality Not available.
Flu Activity Not available.
METAR KSLI 281058Z AUTO 34003KT 10SM CLR 06/M02 A3028 RMK AO2 SLP257 T00611018

More Conditions Fewer Conditions

10-Day Weather Forecast

Almanac

Astronomy

Dec. 28, 2014 Rise Set
Actual Time
Civil Twilight
Nautical Twilight
Astronomical Twilight
Moon
Length of Visible Light
Length of Day
Tomorrow will be .
, % of the Moon is Illuminated

Today's Extremes

State Highs State Lows

Community

WunderPhotos

Upload Photos

1,781,232 photos uploaded!

WunderBlogs® & News

Nearby

Air Quality

  Air Quality AQ Index Pollutant
Not available.

Snow Depth

Station Depth Elevation

Earthquake Activity

City Distance Mag. Time & Date
Minimum magnitude displayed is 2.5.

Coastal Water Temperatures

Place Temperature

Nearby Weather Stations